This is the latest recevied weather packets stored in our database for station/object OE1HTB-13. If no packets are shown the sender has not sent any weather packets the latest 10 day(s).
| Time | Temp. | Humidity | Pressure | Rain* | Wind** | Luminosity | Snow |
|---|---|---|---|---|---|---|---|
| 1777941972 | 13.33° C | 65% | 1008.4 hPa | 0 mm | - | 0 W/m² | - |
| 1777941072 | 13.33° C | 65% | 1008.5 hPa | 0 mm | - | 0 W/m² | - |
| 1777940172 | 13.33° C | 64% | 1008.6 hPa | 0 mm | - | 0 W/m² | - |
| 1777939271 | 13.89° C | 64% | 1008.7 hPa | 0 mm | - | 0 W/m² | - |
| 1777938371 | 13.89° C | 64% | 1008.9 hPa | 0 mm | - | 0 W/m² | - |
| 1777937471 | 13.89° C | 63% | 1009 hPa | 0 mm | - | 0 W/m² | - |
| 1777936571 | 14.44° C | 63% | 1009 hPa | 0 mm | - | 0 W/m² | - |
| 1777935672 | 14.44° C | 63% | 1009.1 hPa | 0 mm | - | 0 W/m² | - |
| 1777934771 | 14.44° C | 63% | 1009.3 hPa | 0 mm | - | 0 W/m² | - |
| 1777933870 | 14.44° C | 63% | 1009.3 hPa | 0 mm | - | 0 W/m² | - |
| 1777932970 | 15° C | 62% | 1009.4 hPa | 0 mm | - | 0 W/m² | - |
| 1777932070 | 15.56° C | 59% | 1009.5 hPa | 0 mm | - | 0 W/m² | - |
| 1777931171 | 16.11° C | 56% | 1009.5 hPa | 0 mm | - | 0 W/m² | - |
| 1777930269 | 16.11° C | 54% | 1009.7 hPa | 0 mm | - | 0 W/m² | - |
| 1777929369 | 16.67° C | 53% | 1009.8 hPa | 0 mm | - | 0 W/m² | - |
| 1777928469 | 16.67° C | 52% | 1009.9 hPa | 0 mm | - | 0 W/m² | - |
| 1777927576 | 17.22° C | 50% | 1010 hPa | 0 mm | - | 0 W/m² | - |
| 1777926675 | 17.78° C | 48% | 1010 hPa | 0 mm | - | 0 W/m² | - |
| 1777925775 | 18.33° C | 47% | 1010 hPa | 0 mm | - | 0 W/m² | - |
| 1777924875 | 18.33° C | 46% | 1010.1 hPa | 0 mm | - | 0 W/m² | - |
| 1777923975 | 18.33° C | 45% | 1010.2 hPa | 0 mm | - | 0 W/m² | - |
| 1777923074 | 18.89° C | 44% | 1010.2 hPa | 0 mm | - | 0 W/m² | - |
| 1777922174 | 19.44° C | 43% | 1010.2 hPa | 0 mm | - | 0 W/m² | - |
| 1777921274 | 19.44° C | 41% | 1010.2 hPa | 0 mm | - | 0 W/m² | - |
| 1777920374 | 20° C | 40% | 1010.1 hPa | 0 mm | - | 0 W/m² | - |
* Rain latest hour (hover to see other rain measurements)
** Current wind speed in m/s (hover to see current wind gust speed)